aviador You're here:

GMMW Decoded Metar

ARWI in MOROCCO
Report Time2018-01-17 18:00:00
UTC Time2018-01-17 18:16:11
Flight Rules vfr VFR
Wind060° at 03 kt
W.Decomp.*RWY 08: 2.8 kt HW 1 kt LCW
W.Rank060° ranks 1
Current wind is below 060° avg. (8.0)
Visibility9999 m
Phenomena:N/A
Clouds:N/A
Expected CloudBase > 2,000 ft AGL from Temp-Dew spread
CeilingNone
Temp12°C (ISA -2)
Dew Point07°C (72% RH)
AAT10.2°C
QNH1021 hPa
Density Alt220 ft
Elevation574 ft
Report Wrong Elevation
Raw Report
GMMW 171800Z 06003KT CAVOK 12/07 Q1021 NOSIG=

Extra information for GMMW:More info

Metar Taf Metar & Taf Last 4 Metars F.Rules Stats Wind Profile Meteogram Temp Stats Airport Information Weather charts Add Link Nearby VenuesMetar ALERT Operation Metar Decoded Social comments